sensor_id;sensor_type;location;lat;lon;timestamp;temperature;humidity
46331;DHT22;32049;52.346;4.870;2022-07-10T07:37:08;17.40;99.90
46331;DHT22;32049;52.346;4.870;2022-07-10T07:39:56;17.40;99.90
46331;DHT22;32049;52.346;4.870;2022-07-10T07:42:46;17.40;99.90
46331;DHT22;32049;52.346;4.870;2022-07-10T07:45:37;17.50;99.90
46331;DHT22;32049;52.346;4.870;2022-07-10T07:48:30;17.60;99.90
46331;DHT22;32049;52.346;4.870;2022-07-10T07:51:22;17.80;99.90
46331;DHT22;32049;52.346;4.870;2022-07-10T07:54:10;17.70;99.90
46331;DHT22;32049;52.346;4.870;2022-07-10T07:57:06;17.80;99.90
46331;DHT22;32049;52.346;4.870;2022-07-10T07:59:56;17.70;99.90
46331;DHT22;32049;52.346;4.870;2022-07-10T08:02:43;17.50;99.90
46331;DHT22;32049;52.346;4.870;2022-07-10T08:05:38;17.80;99.90
46331;DHT22;32049;52.346;4.870;2022-07-10T08:08:29;17.90;99.90
46331;DHT22;32049;52.346;4.870;2022-07-10T08:11:19;17.90;99.90
46331;DHT22;32049;52.346;4.870;2022-07-10T08:14:14;17.90;99.90
46331;DHT22;32049;52.346;4.870;2022-07-10T08:17:04;18.10;99.90
46331;DHT22;32049;52.346;4.870;2022-07-10T08:19:58;18.20;99.90
46331;DHT22;32049;52.346;4.870;2022-07-10T08:22:47;18.20;99.90
46331;DHT22;32049;52.346;4.870;2022-07-10T08:25:53;18.10;99.90
46331;DHT22;32049;52.346;4.870;2022-07-10T08:28:48;17.80;99.90
46331;DHT22;32049;52.346;4.870;2022-07-10T08:31:39;18.00;99.90
46331;DHT22;32049;52.346;4.870;2022-07-10T08:34:30;18.20;99.90
46331;DHT22;32049;52.346;4.870;2022-07-10T08:37:23;18.10;99.90
46331;DHT22;32049;52.346;4.870;2022-07-10T08:40:13;18.30;99.90
46331;DHT22;32049;52.346;4.870;2022-07-10T08:43:01;18.40;99.90
46331;DHT22;32049;52.346;4.870;2022-07-10T08:45:50;18.20;99.90
46331;DHT22;32049;52.346;4.870;2022-07-10T08:48:42;18.30;99.90
46331;DHT22;32049;52.346;4.870;2022-07-10T08:54:38;18.40;99.90
46331;DHT22;32049;52.346;4.870;2022-07-10T08:57:31;18.50;99.90
46331;DHT22;32049;52.346;4.870;2022-07-10T09:00:24;18.70;99.90
46331;DHT22;32049;52.346;4.870;2022-07-10T09:03:12;18.60;99.90
46331;DHT22;32049;52.346;4.870;2022-07-10T09:06:00;18.80;99.90
46331;DHT22;32049;52.346;4.870;2022-07-10T09:09:06;18.90;99.90
46331;DHT22;32049;52.346;4.870;2022-07-10T09:11:58;18.90;99.90
46331;DHT22;32049;52.346;4.870;2022-07-10T09:14:52;18.90;99.90
46331;DHT22;32049;52.346;4.870;2022-07-10T09:18:00;18.70;99.90
46331;DHT22;32049;52.346;4.870;2022-07-10T09:20:51;18.80;99.90
46331;DHT22;32049;52.346;4.870;2022-07-10T09:23:40;18.70;99.90
46331;DHT22;32049;52.346;4.870;2022-07-10T09:26:28;19.10;99.90
46331;DHT22;32049;52.346;4.870;2022-07-10T09:29:24;19.20;99.90
46331;DHT22;32049;52.346;4.870;2022-07-10T09:32:18;19.20;99.90
46331;DHT22;32049;52.346;4.870;2022-07-10T11:20:23;20.70;99.90
46331;DHT22;32049;52.346;4.870;2022-07-10T11:30:02;21.10;99.90
46331;DHT22;32049;52.346;4.870;2022-07-10T11:32:50;21.50;99.90
46331;DHT22;32049;52.346;4.870;2022-07-10T11:36:14;20.80;99.90
46331;DHT22;32049;52.346;4.870;2022-07-10T11:39:11;21.30;99.90
46331;DHT22;32049;52.346;4.870;2022-07-10T11:42:21;21.40;99.90
46331;DHT22;32049;52.346;4.870;2022-07-10T11:45:29;21.40;99.90
46331;DHT22;32049;52.346;4.870;2022-07-10T11:48:33;21.30;99.90
46331;DHT22;32049;52.346;4.870;2022-07-10T11:51:39;21.20;99.90
46331;DHT22;32049;52.346;4.870;2022-07-10T11:54:28;21.70;99.90
46331;DHT22;32049;52.346;4.870;2022-07-10T11:57:18;21.40;99.90
46331;DHT22;32049;52.346;4.870;2022-07-10T12:00:27;21.00;99.90
46331;DHT22;32049;52.346;4.870;2022-07-10T12:03:20;21.00;99.90
46331;DHT22;32049;52.346;4.870;2022-07-10T12:06:16;21.30;99.90
46331;DHT22;32049;52.346;4.870;2022-07-10T12:09:12;21.40;99.90
46331;DHT22;32049;52.346;4.870;2022-07-10T12:12:03;21.30;99.90
46331;DHT22;32049;52.346;4.870;2022-07-10T12:14:52;21.10;99.90
46331;DHT22;32049;52.346;4.870;2022-07-10T12:17:53;21.30;99.90
46331;DHT22;32049;52.346;4.870;2022-07-10T12:20:46;21.40;99.90
46331;DHT22;32049;52.346;4.870;2022-07-10T12:23:35;21.60;99.90
46331;DHT22;32049;52.346;4.870;2022-07-10T12:26:33;21.60;99.90
46331;DHT22;32049;52.346;4.870;2022-07-10T12:29:42;21.50;99.90
46331;DHT22;32049;52.346;4.870;2022-07-10T12:32:31;21.70;99.90
46331;DHT22;32049;52.346;4.870;2022-07-10T12:35:21;21.90;99.90
46331;DHT22;32049;52.346;4.870;2022-07-10T12:38:26;21.60;99.90
46331;DHT22;32049;52.346;4.870;2022-07-10T12:41:22;22.10;99.90
46331;DHT22;32049;52.346;4.870;2022-07-10T12:47:46;21.80;99.90
46331;DHT22;32049;52.346;4.870;2022-07-10T12:50:35;21.80;99.90
46331;DHT22;32049;52.346;4.870;2022-07-10T12:53:33;22.40;99.90
46331;DHT22;32049;52.346;4.870;2022-07-10T12:56:39;22.70;99.90
46331;DHT22;32049;52.346;4.870;2022-07-10T12:59:51;22.90;99.90
46331;DHT22;32049;52.346;4.870;2022-07-10T13:02:46;22.90;99.90
46331;DHT22;32049;52.346;4.870;2022-07-10T13:05:42;22.20;99.90
46331;DHT22;32049;52.346;4.870;2022-07-10T13:08:44;22.10;99.90
46331;DHT22;32049;52.346;4.870;2022-07-10T13:11:36;22.00;99.90
46331;DHT22;32049;52.346;4.870;2022-07-10T13:14:29;22.10;99.90
46331;DHT22;32049;52.346;4.870;2022-07-10T13:17:55;22.20;99.90
46331;DHT22;32049;52.346;4.870;2022-07-10T13:20:51;22.20;99.90
46331;DHT22;32049;52.346;4.870;2022-07-10T13:27:00;22.20;99.90
46331;DHT22;32049;52.346;4.870;2022-07-10T13:29:57;22.30;99.90
46331;DHT22;32049;52.346;4.870;2022-07-10T13:33:04;22.10;99.90
46331;DHT22;32049;52.346;4.870;2022-07-10T13:35:55;22.00;99.90
46331;DHT22;32049;52.346;4.870;2022-07-10T13:38:50;22.10;99.90
46331;DHT22;32049;52.346;4.870;2022-07-10T13:41:43;22.60;99.90
46331;DHT22;32049;52.346;4.870;2022-07-10T13:44:31;22.40;99.90
46331;DHT22;32049;52.346;4.870;2022-07-10T13:47:27;22.20;99.90
46331;DHT22;32049;52.346;4.870;2022-07-10T13:50:23;21.70;99.90
46331;DHT22;32049;52.346;4.870;2022-07-10T13:53:18;22.00;99.90
46331;DHT22;32049;52.346;4.870;2022-07-10T13:56:08;21.80;99.90
46331;DHT22;32049;52.346;4.870;2022-07-10T13:59:06;21.90;99.90
46331;DHT22;32049;52.346;4.870;2022-07-10T14:01:54;21.70;99.90
46331;DHT22;32049;52.346;4.870;2022-07-10T14:04:44;21.50;99.90
46331;DHT22;32049;52.346;4.870;2022-07-10T14:07:31;21.50;99.90
46331;DHT22;32049;52.346;4.870;2022-07-10T14:10:25;21.20;99.90
46331;DHT22;32049;52.346;4.870;2022-07-10T14:13:20;21.40;99.90
46331;DHT22;32049;52.346;4.870;2022-07-10T14:16:09;21.60;99.90
46331;DHT22;32049;52.346;4.870;2022-07-10T14:22:26;21.60;99.90
46331;DHT22;32049;52.346;4.870;2022-07-10T14:25:20;22.10;99.90
46331;DHT22;32049;52.346;4.870;2022-07-10T14:28:13;21.80;99.90
46331;DHT22;32049;52.346;4.870;2022-07-10T14:31:05;21.80;99.90
46331;DHT22;32049;52.346;4.870;2022-07-10T14:34:01;21.60;99.90
46331;DHT22;32049;52.346;4.870;2022-07-10T14:37:02;21.70;99.90
46331;DHT22;32049;52.346;4.870;2022-07-10T14:39:54;21.70;99.90
46331;DHT22;32049;52.346;4.870;2022-07-10T14:42:51;21.50;99.90
46331;DHT22;32049;52.346;4.870;2022-07-10T14:45:54;21.20;99.90
46331;DHT22;32049;52.346;4.870;2022-07-10T14:48:54;21.70;99.90
46331;DHT22;32049;52.346;4.870;2022-07-10T14:52:09;21.40;99.90
46331;DHT22;32049;52.346;4.870;2022-07-10T14:55:09;21.60;99.90
46331;DHT22;32049;52.346;4.870;2022-07-10T14:58:22;21.60;99.90
46331;DHT22;32049;52.346;4.870;2022-07-10T15:01:19;21.70;99.90
46331;DHT22;32049;52.346;4.870;2022-07-10T15:04:30;21.60;99.90
46331;DHT22;32049;52.346;4.870;2022-07-10T15:07:47;21.00;99.90
46331;DHT22;32049;52.346;4.870;2022-07-10T15:11:17;21.20;99.90
46331;DHT22;32049;52.346;4.870;2022-07-10T15:14:23;21.40;99.90
46331;DHT22;32049;52.346;4.870;2022-07-10T15:17:17;21.40;99.90
46331;DHT22;32049;52.346;4.870;2022-07-10T15:20:17;21.10;99.90
46331;DHT22;32049;52.346;4.870;2022-07-10T15:23:10;21.10;99.90
46331;DHT22;32049;52.346;4.870;2022-07-10T15:26:04;21.20;99.90
46331;DHT22;32049;52.346;4.870;2022-07-10T15:29:17;20.90;99.90
46331;DHT22;32049;52.346;4.870;2022-07-10T15:32:10;21.10;99.90
46331;DHT22;32049;52.346;4.870;2022-07-10T15:35:43;20.80;99.90
46331;DHT22;32049;52.346;4.870;2022-07-10T15:38:31;20.50;99.90
46331;DHT22;32049;52.346;4.870;2022-07-10T15:41:23;20.60;99.90
46331;DHT22;32049;52.346;4.870;2022-07-10T15:44:11;20.70;99.90
46331;DHT22;32049;52.346;4.870;2022-07-10T15:47:04;20.30;99.90
46331;DHT22;32049;52.346;4.870;2022-07-10T15:50:37;20.40;99.90
46331;DHT22;32049;52.346;4.870;2022-07-10T15:53:29;20.30;99.90
46331;DHT22;32049;52.346;4.870;2022-07-10T15:56:23;20.30;99.90
46331;DHT22;32049;52.346;4.870;2022-07-10T15:59:40;20.40;99.90
46331;DHT22;32049;52.346;4.870;2022-07-10T16:06:55;20.20;99.90
46331;DHT22;32049;52.346;4.870;2022-07-10T16:09:43;20.50;99.90
46331;DHT22;32049;52.346;4.870;2022-07-10T16:12:31;20.60;99.90
46331;DHT22;32049;52.346;4.870;2022-07-10T16:15:18;20.60;99.90
46331;DHT22;32049;52.346;4.870;2022-07-10T16:18:06;20.50;99.90
46331;DHT22;32049;52.346;4.870;2022-07-10T16:20:53;20.40;99.90
46331;DHT22;32049;52.346;4.870;2022-07-10T16:23:42;20.10;99.90
46331;DHT22;32049;52.346;4.870;2022-07-10T16:26:30;20.20;99.90
46331;DHT22;32049;52.346;4.870;2022-07-10T16:29:22;20.10;99.90
46331;DHT22;32049;52.346;4.870;2022-07-10T16:32:13;20.20;99.90
46331;DHT22;32049;52.346;4.870;2022-07-10T16:35:01;20.30;99.90
46331;DHT22;32049;52.346;4.870;2022-07-10T16:37:49;20.50;99.90
46331;DHT22;32049;52.346;4.870;2022-07-10T16:40:36;20.40;99.90
46331;DHT22;32049;52.346;4.870;2022-07-10T16:43:24;20.30;99.90
46331;DHT22;32049;52.346;4.870;2022-07-10T16:46:17;20.50;99.90
46331;DHT22;32049;52.346;4.870;2022-07-10T16:49:06;20.80;99.90
46331;DHT22;32049;52.346;4.870;2022-07-10T16:51:53;20.60;99.90
46331;DHT22;32049;52.346;4.870;2022-07-10T16:54:40;20.80;99.90
46331;DHT22;32049;52.346;4.870;2022-07-10T16:57:28;20.90;99.90
46331;DHT22;32049;52.346;4.870;2022-07-10T17:00:16;20.70;99.90
46331;DHT22;32049;52.346;4.870;2022-07-10T17:03:03;21.00;99.90
46331;DHT22;32049;52.346;4.870;2022-07-10T17:05:51;21.00;99.90
46331;DHT22;32049;52.346;4.870;2022-07-10T17:08:38;21.10;99.90
46331;DHT22;32049;52.346;4.870;2022-07-10T17:11:26;21.10;99.90
46331;DHT22;32049;52.346;4.870;2022-07-10T17:14:17;21.20;99.90
46331;DHT22;32049;52.346;4.870;2022-07-10T17:17:04;20.70;99.90
46331;DHT22;32049;52.346;4.870;2022-07-10T17:19:53;20.90;99.90
46331;DHT22;32049;52.346;4.870;2022-07-10T17:22:40;21.10;99.90
46331;DHT22;32049;52.346;4.870;2022-07-10T17:25:30;20.90;99.90
46331;DHT22;32049;52.346;4.870;2022-07-10T17:28:18;20.90;99.90
46331;DHT22;32049;52.346;4.870;2022-07-10T17:31:05;21.00;99.90
46331;DHT22;32049;52.346;4.870;2022-07-10T17:33:53;20.80;99.90
46331;DHT22;32049;52.346;4.870;2022-07-10T17:36:41;20.60;99.90
46331;DHT22;32049;52.346;4.870;2022-07-10T17:39:29;20.50;99.90
46331;DHT22;32049;52.346;4.870;2022-07-10T17:42:16;20.50;99.90
46331;DHT22;32049;52.346;4.870;2022-07-10T17:45:04;20.80;99.90
46331;DHT22;32049;52.346;4.870;2022-07-10T17:47:52;20.50;99.90
46331;DHT22;32049;52.346;4.870;2022-07-10T17:50:39;21.00;99.90
46331;DHT22;32049;52.346;4.870;2022-07-10T17:53:30;20.80;99.90
46331;DHT22;32049;52.346;4.870;2022-07-10T17:56:18;21.20;99.90
46331;DHT22;32049;52.346;4.870;2022-07-10T17:59:09;20.70;99.90
46331;DHT22;32049;52.346;4.870;2022-07-10T18:01:56;20.70;99.90
46331;DHT22;32049;52.346;4.870;2022-07-10T18:04:44;20.70;99.90
46331;DHT22;32049;52.346;4.870;2022-07-10T18:07:32;20.50;99.90
46331;DHT22;32049;52.346;4.870;2022-07-10T18:10:20;20.70;99.90
46331;DHT22;32049;52.346;4.870;2022-07-10T18:13:08;20.70;99.90
46331;DHT22;32049;52.346;4.870;2022-07-10T18:15:56;20.50;99.90
46331;DHT22;32049;52.346;4.870;2022-07-10T18:18:57;20.70;99.90
46331;DHT22;32049;52.346;4.870;2022-07-10T18:21:48;20.90;99.90
46331;DHT22;32049;52.346;4.870;2022-07-10T18:24:36;20.80;99.90
46331;DHT22;32049;52.346;4.870;2022-07-10T18:27:23;20.50;99.90
46331;DHT22;32049;52.346;4.870;2022-07-10T18:30:11;20.40;99.90
46331;DHT22;32049;52.346;4.870;2022-07-10T18:32:59;20.10;99.90
46331;DHT22;32049;52.346;4.870;2022-07-10T18:36:06;20.20;99.90
46331;DHT22;32049;52.346;4.870;2022-07-10T18:38:54;19.90;99.90
46331;DHT22;32049;52.346;4.870;2022-07-10T18:41:42;19.80;99.90
46331;DHT22;32049;52.346;4.870;2022-07-10T18:44:29;20.00;99.90
46331;DHT22;32049;52.346;4.870;2022-07-10T18:47:17;19.90;99.90
46331;DHT22;32049;52.346;4.870;2022-07-10T18:50:06;20.00;99.90
46331;DHT22;32049;52.346;4.870;2022-07-10T18:52:54;19.70;99.90
46331;DHT22;32049;52.346;4.870;2022-07-10T18:55:41;19.90;99.90
46331;DHT22;32049;52.346;4.870;2022-07-10T18:58:31;20.00;99.90
46331;DHT22;32049;52.346;4.870;2022-07-10T19:01:18;20.00;99.90
46331;DHT22;32049;52.346;4.870;2022-07-10T19:04:06;20.30;99.90
46331;DHT22;32049;52.346;4.870;2022-07-10T19:06:54;20.20;99.90
46331;DHT22;32049;52.346;4.870;2022-07-10T19:14:40;19.80;99.90
46331;DHT22;32049;52.346;4.870;2022-07-10T19:17:28;19.60;99.90
46331;DHT22;32049;52.346;4.870;2022-07-10T19:20:17;19.90;99.90
46331;DHT22;32049;52.346;4.870;2022-07-10T19:23:04;19.80;99.90
46331;DHT22;32049;52.346;4.870;2022-07-10T19:25:52;19.80;99.90
46331;DHT22;32049;52.346;4.870;2022-07-10T19:28:42;19.60;99.90
46331;DHT22;32049;52.346;4.870;2022-07-10T19:31:30;19.60;99.90
46331;DHT22;32049;52.346;4.870;2022-07-10T19:34:18;19.40;99.90
46331;DHT22;32049;52.346;4.870;2022-07-10T19:37:05;19.50;99.90
46331;DHT22;32049;52.346;4.870;2022-07-10T19:39:53;19.30;99.90
46331;DHT22;32049;52.346;4.870;2022-07-10T19:42:41;19.30;99.90
46331;DHT22;32049;52.346;4.870;2022-07-10T19:45:28;19.10;99.90
46331;DHT22;32049;52.346;4.870;2022-07-10T19:48:17;19.20;99.90
46331;DHT22;32049;52.346;4.870;2022-07-10T19:51:05;19.20;99.90
46331;DHT22;32049;52.346;4.870;2022-07-10T19:53:57;19.40;99.90
46331;DHT22;32049;52.346;4.870;2022-07-10T19:56:45;19.10;99.90
46331;DHT22;32049;52.346;4.870;2022-07-10T19:59:32;19.30;99.90
46331;DHT22;32049;52.346;4.870;2022-07-10T20:02:20;19.20;99.90
46331;DHT22;32049;52.346;4.870;2022-07-10T20:05:08;19.30;99.90
46331;DHT22;32049;52.346;4.870;2022-07-10T20:07:56;19.30;99.90
46331;DHT22;32049;52.346;4.870;2022-07-10T20:10:43;19.10;99.90
46331;DHT22;32049;52.346;4.870;2022-07-10T20:13:30;19.40;99.90
46331;DHT22;32049;52.346;4.870;2022-07-10T20:16:18;19.00;99.90
46331;DHT22;32049;52.346;4.870;2022-07-10T20:19:06;18.60;99.90
46331;DHT22;32049;52.346;4.870;2022-07-10T20:21:54;18.60;99.90
46331;DHT22;32049;52.346;4.870;2022-07-10T20:24:42;18.60;99.90
46331;DHT22;32049;52.346;4.870;2022-07-10T20:27:30;18.40;99.90
46331;DHT22;32049;52.346;4.870;2022-07-10T20:30:17;18.20;99.90
46331;DHT22;32049;52.346;4.870;2022-07-10T20:33:05;18.10;99.90
46331;DHT22;32049;52.346;4.870;2022-07-10T20:35:52;18.10;99.90
46331;DHT22;32049;52.346;4.870;2022-07-10T20:38:58;18.10;99.90
46331;DHT22;32049;52.346;4.870;2022-07-10T20:41:46;18.10;99.90
46331;DHT22;32049;52.346;4.870;2022-07-10T20:44:33;18.00;99.90
46331;DHT22;32049;52.346;4.870;2022-07-10T20:47:20;18.00;99.90
46331;DHT22;32049;52.346;4.870;2022-07-10T20:50:08;18.00;99.90
46331;DHT22;32049;52.346;4.870;2022-07-10T20:52:56;18.10;99.90
46331;DHT22;32049;52.346;4.870;2022-07-10T20:55:44;18.10;99.90
46331;DHT22;32049;52.346;4.870;2022-07-10T20:58:31;18.00;99.90
46331;DHT22;32049;52.346;4.870;2022-07-10T21:01:19;18.10;99.90
46331;DHT22;32049;52.346;4.870;2022-07-10T21:04:06;18.10;99.90
46331;DHT22;32049;52.346;4.870;2022-07-10T21:06:54;18.10;99.90
46331;DHT22;32049;52.346;4.870;2022-07-10T21:09:41;18.00;99.90
46331;DHT22;32049;52.346;4.870;2022-07-10T21:12:29;17.90;99.90
46331;DHT22;32049;52.346;4.870;2022-07-10T21:15:19;18.00;99.90
46331;DHT22;32049;52.346;4.870;2022-07-10T21:18:06;17.90;99.90
46331;DHT22;32049;52.346;4.870;2022-07-10T21:20:54;17.90;99.90
46331;DHT22;32049;52.346;4.870;2022-07-10T21:23:41;17.80;99.90
46331;DHT22;32049;52.346;4.870;2022-07-10T21:26:30;17.90;99.90
46331;DHT22;32049;52.346;4.870;2022-07-10T21:29:17;18.00;99.90
46331;DHT22;32049;52.346;4.870;2022-07-10T21:32:05;17.90;99.90
46331;DHT22;32049;52.346;4.870;2022-07-10T21:34:52;18.00;99.90
46331;DHT22;32049;52.346;4.870;2022-07-10T21:37:40;18.00;99.90
46331;DHT22;32049;52.346;4.870;2022-07-10T21:40:27;18.00;99.90
46331;DHT22;32049;52.346;4.870;2022-07-10T21:43:15;17.90;99.90
46331;DHT22;32049;52.346;4.870;2022-07-10T21:46:03;18.00;99.90
46331;DHT22;32049;52.346;4.870;2022-07-10T21:48:52;18.00;99.90
46331;DHT22;32049;52.346;4.870;2022-07-10T21:51:47;18.00;99.90
46331;DHT22;32049;52.346;4.870;2022-07-10T21:54:34;17.90;99.90
46331;DHT22;32049;52.346;4.870;2022-07-10T21:57:28;17.80;99.90
46331;DHT22;32049;52.346;4.870;2022-07-10T22:00:15;18.00;99.90
46331;DHT22;32049;52.346;4.870;2022-07-10T22:03:03;18.00;99.90
46331;DHT22;32049;52.346;4.870;2022-07-10T22:05:51;18.00;99.90
46331;DHT22;32049;52.346;4.870;2022-07-10T22:08:38;18.00;99.90
46331;DHT22;32049;52.346;4.870;2022-07-10T22:11:26;18.20;99.90
46331;DHT22;32049;52.346;4.870;2022-07-10T22:14:13;18.10;99.90
46331;DHT22;32049;52.346;4.870;2022-07-10T22:17:00;18.00;99.90
46331;DHT22;32049;52.346;4.870;2022-07-10T22:19:48;18.00;99.90
46331;DHT22;32049;52.346;4.870;2022-07-10T22:22:40;18.00;99.90
46331;DHT22;32049;52.346;4.870;2022-07-10T22:25:28;18.10;99.90
46331;DHT22;32049;52.346;4.870;2022-07-10T22:28:15;18.10;99.90
46331;DHT22;32049;52.346;4.870;2022-07-10T22:31:02;18.20;99.90
46331;DHT22;32049;52.346;4.870;2022-07-10T22:34:05;18.10;99.90
46331;DHT22;32049;52.346;4.870;2022-07-10T22:36:54;18.10;99.90
46331;DHT22;32049;52.346;4.870;2022-07-10T22:39:41;18.10;99.90
46331;DHT22;32049;52.346;4.870;2022-07-10T22:42:29;18.20;99.90
46331;DHT22;32049;52.346;4.870;2022-07-10T22:45:17;18.10;99.90
46331;DHT22;32049;52.346;4.870;2022-07-10T22:48:05;18.00;99.90
46331;DHT22;32049;52.346;4.870;2022-07-10T22:50:52;18.00;99.90
46331;DHT22;32049;52.346;4.870;2022-07-10T22:53:40;18.10;99.90
46331;DHT22;32049;52.346;4.870;2022-07-10T22:56:27;18.10;99.90
46331;DHT22;32049;52.346;4.870;2022-07-10T22:59:15;18.10;99.90
46331;DHT22;32049;52.346;4.870;2022-07-10T23:02:03;18.10;99.90
46331;DHT22;32049;52.346;4.870;2022-07-10T23:04:51;18.10;99.90
46331;DHT22;32049;52.346;4.870;2022-07-10T23:07:38;18.10;99.90
46331;DHT22;32049;52.346;4.870;2022-07-10T23:10:25;18.00;99.90
46331;DHT22;32049;52.346;4.870;2022-07-10T23:13:13;17.90;99.90
46331;DHT22;32049;52.346;4.870;2022-07-10T23:16:01;17.90;99.90
46331;DHT22;32049;52.346;4.870;2022-07-10T23:18:48;17.90;99.90
46331;DHT22;32049;52.346;4.870;2022-07-10T23:21:36;17.90;99.90
46331;DHT22;32049;52.346;4.870;2022-07-10T23:24:24;18.00;99.90
46331;DHT22;32049;52.346;4.870;2022-07-10T23:27:11;17.90;99.90
46331;DHT22;32049;52.346;4.870;2022-07-10T23:29:58;17.80;99.90
46331;DHT22;32049;52.346;4.870;2022-07-10T23:32:46;17.80;99.90
46331;DHT22;32049;52.346;4.870;2022-07-10T23:35:33;17.80;99.90
46331;DHT22;32049;52.346;4.870;2022-07-10T23:38:21;17.80;99.90
46331;DHT22;32049;52.346;4.870;2022-07-10T23:41:08;17.80;99.90
46331;DHT22;32049;52.346;4.870;2022-07-10T23:43:55;17.70;99.90
46331;DHT22;32049;52.346;4.870;2022-07-10T23:46:44;17.60;99.90
46331;DHT22;32049;52.346;4.870;2022-07-10T23:49:32;17.50;99.90
46331;DHT22;32049;52.346;4.870;2022-07-10T23:52:40;17.70;99.90
46331;DHT22;32049;52.346;4.870;2022-07-10T23:55:29;17.70;99.90
46331;DHT22;32049;52.346;4.870;2022-07-10T23:58:16;17.70;99.90
